createdAt,value
2022-08-03T00:00:44.604Z,2.40
2022-08-03T00:03:14.186Z,2.65
2022-08-03T00:06:04.763Z,2.08
2022-08-03T00:08:33.060Z,2.35
2022-08-03T00:11:09.539Z,2.13
2022-08-03T00:13:40.540Z,2.05
2022-08-03T00:16:10.708Z,2.00
2022-08-03T00:18:40.592Z,2.00
2022-08-03T00:21:10.153Z,1.80
2022-08-03T00:23:51.682Z,2.10
2022-08-03T00:26:22.633Z,2.13
2022-08-03T00:28:53.410Z,1.88
2022-08-03T00:31:27.765Z,2.10
2022-08-03T00:34:12.459Z,1.93
2022-08-03T00:36:42.314Z,2.00
2022-08-03T00:39:11.704Z,1.90
2022-08-03T00:41:40.969Z,2.35
2022-08-03T00:44:11.886Z,2.30
2022-08-03T00:46:41.200Z,2.10
2022-08-03T00:49:10.573Z,2.10
2022-08-03T00:51:40.138Z,2.00
2022-08-03T00:54:09.420Z,1.83
2022-08-03T00:56:39.697Z,1.87
2022-08-03T00:59:32.409Z,1.80
2022-08-03T01:02:01.704Z,2.00
2022-08-03T01:04:31.248Z,1.85
2022-08-03T01:07:10.977Z,2.20
2022-08-03T01:12:23.587Z,2.05
2022-08-03T01:15:01.490Z,1.70
2022-08-03T01:17:37.140Z,1.77
2022-08-03T01:20:10.636Z,2.00
2022-08-03T01:22:56.685Z,1.50
2022-08-03T01:25:36.435Z,1.60
2022-08-03T01:28:24.374Z,2.05
2022-08-03T01:30:59.840Z,1.65
2022-08-03T01:33:35.154Z,1.65
2022-08-03T01:36:06.902Z,1.60
2022-08-03T01:38:39.582Z,1.92
2022-08-03T01:41:14.955Z,1.63
2022-08-03T01:43:59.078Z,1.67
2022-08-03T01:46:47.750Z,1.50
2022-08-03T01:49:19.277Z,1.80
2022-08-03T01:52:00.830Z,1.92
2022-08-03T01:54:36.836Z,1.83
2022-08-03T01:57:07.831Z,1.83
2022-08-03T01:59:38.668Z,1.65
2022-08-03T02:02:28.055Z,2.00
2022-08-03T02:05:10.600Z,1.75
2022-08-03T02:07:43.210Z,1.65
2022-08-03T02:10:16.131Z,2.30
2022-08-03T02:13:06.394Z,1.77
2022-08-03T02:15:37.224Z,2.00
2022-08-03T02:18:10.494Z,2.00
2022-08-03T02:20:40.995Z,1.95
2022-08-03T02:23:11.029Z,1.45
2022-08-03T02:25:47.838Z,1.45
2022-08-03T02:28:22.200Z,1.92
2022-08-03T02:30:55.969Z,1.80
2022-08-03T02:33:31.651Z,2.20
2022-08-03T02:36:03.504Z,1.75
2022-08-03T02:38:37.208Z,1.90
2022-08-03T02:41:13.925Z,1.85
2022-08-03T02:44:06.345Z,1.90
2022-08-03T02:46:38.492Z,1.65
2022-08-03T02:49:41.205Z,2.03
2022-08-03T02:52:02.325Z,1.92
2022-08-03T02:54:33.902Z,1.70
2022-08-03T02:57:04.389Z,2.13
2022-08-03T02:59:35.271Z,1.95
2022-08-03T03:02:05.562Z,1.67
2022-08-03T03:04:37.932Z,2.42
2022-08-03T03:07:15.591Z,1.95
2022-08-03T03:09:46.176Z,1.90
2022-08-03T03:12:17.095Z,1.85
2022-08-03T03:14:46.782Z,1.73
2022-08-03T03:17:18.646Z,2.10
2022-08-03T03:19:52.830Z,2.15
2022-08-03T03:22:23.165Z,2.17
2022-08-03T03:24:54.714Z,2.08
2022-08-03T03:27:24.347Z,2.00
2022-08-03T03:29:54.309Z,1.92
2022-08-03T03:32:23.669Z,2.13
2022-08-03T03:34:55.349Z,2.13
2022-08-03T03:37:24.879Z,2.10
2022-08-03T03:39:55.544Z,2.35
2022-08-03T03:42:26.126Z,2.13
2022-08-03T03:44:55.806Z,2.00
2022-08-03T03:47:32.937Z,2.35
2022-08-03T03:50:05.013Z,2.90
2022-08-03T03:52:34.962Z,2.42
2022-08-03T03:57:35.213Z,2.30
2022-08-03T04:00:06.157Z,2.50
2022-08-03T04:02:35.866Z,2.20
2022-08-03T04:05:25.069Z,2.53
2022-08-03T04:08:17.454Z,2.20
2022-08-03T04:11:00.411Z,2.22
2022-08-03T04:13:39.808Z,2.03
2022-08-03T04:16:11.935Z,2.13
2022-08-03T04:18:43.443Z,1.95
2022-08-03T04:21:16.437Z,2.20
2022-08-03T04:23:50.041Z,2.10
2022-08-03T04:26:22.597Z,2.30
2022-08-03T04:28:53.380Z,2.17
2022-08-03T04:31:24.238Z,2.15
2022-08-03T04:33:54.690Z,2.28
2022-08-03T04:36:28.128Z,2.38
2022-08-03T04:39:05.017Z,2.42
2022-08-03T04:42:07.284Z,2.30
2022-08-03T04:44:28.830Z,2.20
2022-08-03T04:46:59.185Z,2.10
2022-08-03T04:49:30.440Z,2.42
2022-08-03T04:52:01.442Z,2.10
2022-08-03T04:54:31.094Z,2.60
2022-08-03T04:57:00.339Z,2.80
2022-08-03T04:59:31.719Z,2.53
2022-08-03T05:02:01.363Z,2.90
2022-08-03T05:04:30.897Z,3.20
2022-08-03T05:07:12.401Z,3.20
2022-08-03T05:09:49.777Z,3.90
2022-08-03T05:12:21.841Z,3.28
2022-08-03T05:14:51.375Z,3.22
2022-08-03T05:17:20.699Z,3.20
2022-08-03T05:19:49.949Z,3.03
2022-08-03T05:22:21.105Z,4.18
2022-08-03T05:24:50.667Z,3.15
2022-08-03T05:27:20.310Z,3.38
2022-08-03T05:29:51.289Z,2.80
2022-08-03T05:32:20.658Z,3.80
2022-08-03T05:34:50.252Z,3.90
2022-08-03T05:37:21.009Z,3.73
2022-08-03T05:39:50.240Z,2.90
2022-08-03T05:42:19.786Z,2.65
2022-08-03T05:44:49.082Z,3.00
2022-08-03T05:47:18.501Z,2.35
2022-08-03T05:49:47.986Z,2.95
2022-08-03T05:52:18.054Z,2.83
2022-08-03T05:54:56.077Z,3.20
2022-08-03T05:57:34.010Z,2.92
2022-08-03T06:00:05.275Z,2.55
2022-08-03T06:02:41.216Z,2.90
2022-08-03T06:05:11.451Z,3.03
2022-08-03T06:07:40.721Z,2.50
2022-08-03T06:10:36.157Z,2.42
2022-08-03T06:13:01.462Z,2.40
2022-08-03T06:15:33.344Z,2.75
2022-08-03T06:18:02.634Z,2.72
2022-08-03T06:20:32.372Z,2.60
2022-08-03T06:23:02.829Z,2.58
2022-08-03T06:25:33.808Z,2.55
2022-08-03T06:28:05.119Z,3.05
2022-08-03T06:30:34.785Z,2.95
2022-08-03T06:33:04.483Z,2.72
2022-08-03T06:35:37.817Z,2.70
2022-08-03T06:38:10.807Z,2.78
2022-08-03T06:40:42.059Z,2.90
2022-08-03T07:03:52.597Z,3.20
2022-08-03T07:06:22.879Z,2.67
2022-08-03T07:08:55.445Z,2.72
2022-08-03T07:11:28.614Z,2.58
2022-08-03T07:13:57.919Z,2.72
2022-08-03T07:16:27.422Z,2.58
2022-08-03T07:18:58.121Z,2.40
2022-08-03T07:21:27.360Z,2.40
2022-08-03T07:23:56.877Z,2.88
2022-08-03T07:26:26.214Z,2.90
2022-08-03T07:28:55.582Z,2.88
2022-08-03T07:31:25.078Z,3.20
2022-08-03T07:33:54.424Z,2.38
2022-08-03T07:36:26.931Z,2.50
2022-08-03T07:38:58.170Z,2.40
2022-08-03T07:41:27.581Z,2.45
2022-08-03T07:43:56.974Z,2.53
2022-08-03T07:46:26.795Z,3.70
2022-08-03T07:48:56.170Z,2.60
2022-08-03T07:51:26.976Z,2.83
2022-08-03T07:53:57.753Z,2.25
2022-08-03T07:56:27.130Z,2.63
2022-08-03T07:58:56.824Z,2.72
2022-08-03T08:01:26.644Z,2.90
2022-08-03T08:03:56.145Z,2.47
2022-08-03T08:06:26.793Z,2.40
2022-08-03T08:08:59.586Z,3.00
2022-08-03T08:11:30.934Z,2.55
2022-08-03T08:14:02.786Z,2.80
2022-08-03T08:16:32.419Z,2.33
2022-08-03T08:19:02.647Z,2.58
2022-08-03T08:24:22.714Z,2.60
2022-08-03T08:26:52.791Z,2.88
2022-08-03T08:29:23.349Z,2.70
2022-08-03T08:31:52.813Z,2.90
2022-08-03T08:34:22.153Z,2.47
2022-08-03T08:36:52.836Z,2.83
2022-08-03T08:39:22.340Z,2.75
2022-08-03T08:41:53.475Z,3.08
2022-08-03T08:44:22.961Z,2.83
2022-08-03T08:46:54.900Z,2.70
2022-08-03T08:49:28.993Z,2.95
2022-08-03T08:52:01.703Z,3.10
2022-08-03T08:54:33.307Z,2.60
2022-08-03T08:57:16.457Z,2.72
2022-08-03T08:59:57.328Z,2.88
2022-08-03T09:02:27.350Z,2.97
2022-08-03T09:04:57.451Z,2.55
2022-08-03T09:07:29.227Z,2.60
2022-08-03T09:10:10.010Z,2.50
2022-08-03T09:12:43.868Z,2.60
2022-08-03T09:15:21.606Z,2.50
2022-08-03T09:17:52.018Z,2.42
2022-08-03T09:20:22.873Z,2.45
2022-08-03T09:22:59.042Z,2.40
2022-08-03T09:25:35.005Z,2.47
2022-08-03T09:28:10.335Z,2.40
2022-08-03T09:30:41.670Z,2.80
2022-08-03T09:33:13.123Z,2.30
2022-08-03T09:35:59.029Z,2.50
2022-08-03T09:38:30.059Z,2.65
2022-08-03T09:41:00.768Z,2.58
2022-08-03T09:43:46.822Z,2.70
2022-08-03T09:46:16.436Z,2.47
2022-08-03T09:48:46.136Z,2.30
2022-08-03T09:54:15.098Z,2.30
2022-08-03T09:56:48.628Z,2.47
2022-08-03T09:59:26.548Z,2.35
2022-08-03T10:01:57.501Z,2.60
2022-08-03T10:04:27.671Z,2.42
2022-08-03T10:07:08.413Z,2.40
2022-08-03T10:09:39.909Z,2.25
2022-08-03T10:12:13.573Z,2.40
2022-08-03T10:14:45.707Z,2.42
2022-08-03T10:17:15.490Z,2.20
2022-08-03T10:19:46.590Z,2.58
2022-08-03T10:22:17.395Z,2.30
2022-08-03T10:24:54.847Z,2.47
2022-08-03T10:27:25.511Z,2.50
2022-08-03T10:29:57.059Z,2.38
2022-08-03T10:32:31.712Z,2.30
2022-08-03T10:35:20.285Z,2.63
2022-08-03T10:37:57.447Z,2.53
2022-08-03T10:40:48.228Z,2.33
2022-08-03T10:43:23.548Z,2.72
2022-08-03T10:45:53.433Z,2.50
2022-08-03T10:48:23.609Z,2.60
2022-08-03T10:50:53.335Z,2.33
2022-08-03T10:53:37.574Z,2.40
2022-08-03T10:56:49.906Z,2.30
2022-08-03T10:59:27.908Z,2.28
2022-08-03T11:02:00.724Z,2.75
2022-08-03T11:04:31.030Z,2.40
2022-08-03T11:07:23.277Z,2.58
2022-08-03T11:09:54.734Z,2.42
2022-08-03T11:12:30.176Z,2.58
2022-08-03T11:15:03.467Z,2.40
2022-08-03T11:17:33.784Z,2.42
2022-08-03T11:20:16.598Z,2.10
2022-08-03T11:22:54.491Z,2.47
2022-08-03T11:25:53.915Z,2.22
2022-08-03T11:28:30.629Z,2.35
2022-08-03T11:31:49.934Z,2.30
2022-08-03T11:34:20.099Z,2.20
2022-08-03T11:37:23.305Z,2.30
2022-08-03T11:39:57.258Z,2.53
2022-08-03T11:42:49.157Z,2.47
2022-08-03T11:45:19.961Z,2.70
2022-08-03T11:47:54.081Z,2.13
2022-08-03T11:50:24.448Z,2.20
2022-08-03T11:52:54.003Z,2.30
2022-08-03T11:55:25.035Z,2.40
2022-08-03T11:59:16.631Z,2.60
2022-08-03T12:00:52.567Z,2.47
2022-08-03T12:03:22.548Z,2.42
2022-08-03T12:05:53.175Z,2.22
2022-08-03T12:08:37.449Z,2.30
2022-08-03T12:11:08.714Z,2.22
2022-08-03T12:14:44.068Z,2.60
2022-08-03T12:16:33.576Z,2.47
2022-08-03T12:19:05.005Z,2.35
2022-08-03T12:21:35.428Z,2.35
2022-08-03T12:24:06.823Z,2.13
2022-08-03T12:26:58.535Z,2.40
2022-08-03T12:29:29.609Z,2.17
2022-08-03T12:32:00.419Z,2.15
2022-08-03T12:34:48.211Z,2.03
2022-08-03T12:37:22.440Z,2.30
2022-08-03T12:40:01.346Z,2.30
2022-08-03T12:42:35.077Z,2.20
2022-08-03T12:45:19.926Z,2.50
2022-08-03T12:47:55.185Z,2.30
2022-08-03T12:50:27.525Z,2.20
2022-08-03T12:52:57.764Z,2.22
2022-08-03T12:55:57.210Z,2.00
2022-08-03T12:58:34.560Z,2.38
2022-08-03T13:01:10.102Z,2.20
2022-08-03T13:03:49.784Z,2.17
2022-08-03T13:06:22.650Z,2.30
2022-08-03T13:09:02.705Z,2.40
2022-08-03T13:12:01.852Z,2.40
2022-08-03T13:14:21.514Z,2.13
2022-08-03T13:16:51.024Z,2.13
2022-08-03T13:19:21.724Z,2.03
2022-08-03T13:21:53.906Z,2.10
2022-08-03T13:24:34.657Z,2.30
2022-08-03T13:28:02.422Z,2.20
2022-08-03T13:29:54.842Z,2.33
2022-08-03T13:32:25.028Z,2.22
2022-08-03T13:34:55.717Z,2.45
2022-08-03T13:37:25.642Z,2.17
2022-08-03T13:39:59.604Z,2.28
2022-08-03T13:42:32.064Z,2.17
2022-08-03T13:45:02.427Z,2.20
2022-08-03T13:47:32.016Z,2.10
2022-08-03T13:50:03.364Z,1.88
2022-08-03T13:52:35.168Z,2.30
2022-08-03T13:55:05.691Z,2.30
2022-08-03T13:58:05.418Z,2.08
2022-08-03T14:03:16.123Z,2.30
2022-08-03T14:05:47.713Z,2.13
2022-08-03T14:08:18.244Z,2.25
2022-08-03T14:10:47.887Z,2.13
2022-08-03T14:15:50.129Z,2.13
2022-08-03T14:18:29.093Z,2.20
2022-08-03T14:21:07.193Z,2.28
2022-08-03T14:23:38.609Z,2.28
2022-08-03T14:26:09.391Z,2.28
2022-08-03T14:28:38.844Z,2.20
2022-08-03T14:32:09.127Z,2.10
2022-08-03T14:33:58.130Z,2.10
2022-08-03T14:36:42.307Z,1.85
2022-08-03T14:39:11.757Z,2.20
2022-08-03T14:41:41.484Z,2.10
2022-08-03T14:44:10.684Z,2.22
2022-08-03T14:46:40.047Z,2.10
2022-08-03T14:52:00.643Z,2.10
2022-08-03T14:54:31.466Z,2.40
2022-08-03T14:57:00.981Z,2.10
2022-08-03T14:59:56.400Z,2.10
2022-08-03T15:02:23.775Z,2.20
2022-08-03T15:04:53.938Z,2.20
2022-08-03T15:07:24.812Z,2.03
2022-08-03T15:09:54.314Z,2.00
2022-08-03T15:12:23.581Z,2.30
2022-08-03T15:14:53.015Z,2.15
2022-08-03T15:20:00.426Z,2.10
2022-08-03T15:22:39.978Z,1.90
2022-08-03T15:26:02.348Z,1.70
2022-08-03T15:28:03.616Z,2.22
2022-08-03T15:30:36.869Z,2.00
2022-08-03T15:33:06.660Z,1.92
2022-08-03T15:38:09.458Z,2.30
2022-08-03T15:40:39.689Z,1.80
2022-08-03T15:45:38.280Z,1.95
2022-08-03T15:48:07.841Z,2.00
2022-08-03T15:50:37.314Z,1.80
2022-08-03T15:55:37.166Z,2.00
2022-08-03T15:59:04.294Z,2.17
2022-08-03T16:00:56.925Z,2.05
2022-08-03T16:03:28.373Z,2.03
2022-08-03T16:05:57.842Z,2.00
2022-08-03T16:08:28.544Z,1.70
2022-08-03T16:10:58.342Z,2.38
2022-08-03T16:14:04.797Z,2.10
2022-08-03T16:16:18.648Z,2.33
2022-08-03T16:18:48.184Z,1.85
2022-08-03T16:21:19.432Z,2.00
2022-08-03T16:23:52.288Z,2.22
2022-08-03T16:26:21.563Z,2.00
2022-08-03T16:31:20.297Z,1.80
2022-08-03T16:36:18.907Z,1.98
2022-08-03T16:38:49.689Z,2.00
2022-08-03T16:41:19.029Z,2.05
2022-08-03T16:46:17.646Z,2.70
2022-08-03T16:48:46.949Z,2.10
2022-08-03T16:54:05.345Z,2.50
2022-08-03T16:59:06.574Z,2.20
2022-08-03T17:01:37.863Z,2.17
2022-08-03T17:04:07.487Z,2.35
2022-08-03T17:06:44.961Z,2.30
2022-08-03T17:09:18.183Z,2.47
2022-08-03T17:11:52.027Z,2.70
2022-08-03T17:14:23.866Z,2.70
2022-08-03T17:17:02.073Z,2.42
2022-08-03T17:19:36.671Z,2.60
2022-08-03T17:22:12.038Z,2.60
2022-08-03T17:24:45.433Z,2.70
2022-08-03T17:28:48.490Z,2.60
2022-08-03T17:30:14.904Z,3.05
2022-08-03T17:32:56.699Z,2.80
2022-08-03T17:35:36.514Z,2.90
2022-08-03T17:38:11.921Z,3.00
2022-08-03T17:40:50.150Z,2.75
2022-08-03T18:02:37.060Z,2.95
2022-08-03T18:05:16.857Z,2.90
2022-08-03T18:08:02.502Z,2.80
2022-08-03T18:10:49.519Z,3.10
2022-08-03T18:13:24.745Z,2.92
2022-08-03T18:16:00.356Z,3.00
2022-08-03T18:18:39.108Z,3.00
2022-08-03T18:21:16.866Z,3.20
2022-08-03T18:23:50.123Z,3.15
2022-08-03T18:26:21.532Z,3.35
2022-08-03T18:28:54.382Z,3.55
2022-08-03T18:32:00.436Z,3.45
2022-08-03T18:34:33.435Z,3.35
2022-08-03T18:37:07.642Z,3.40
2022-08-03T18:39:49.838Z,8.20
2022-08-03T18:42:25.910Z,3.70
2022-08-03T18:44:57.028Z,4.50
2022-08-03T18:47:52.059Z,4.50
2022-08-03T18:50:30.727Z,4.50
2022-08-03T18:53:15.558Z,4.65
2022-08-03T18:56:02.119Z,5.47
2022-08-03T18:58:39.593Z,4.75
2022-08-03T19:01:58.575Z,4.38
2022-08-03T19:04:13.459Z,3.78
2022-08-03T19:06:48.692Z,3.70
2022-08-03T19:09:29.031Z,3.22
2022-08-03T19:12:26.180Z,3.10
2022-08-03T19:14:56.278Z,3.10
2022-08-03T19:17:29.745Z,3.35
2022-08-03T19:20:01.592Z,3.40
2022-08-03T19:22:33.752Z,3.33
2022-08-03T19:25:04.216Z,3.90
2022-08-03T19:27:35.200Z,4.40
2022-08-03T19:30:21.789Z,4.03
2022-08-03T19:32:56.256Z,4.03
2022-08-03T19:35:51.918Z,3.55
2022-08-03T19:38:29.114Z,3.85
2022-08-03T19:41:02.281Z,3.75
2022-08-03T19:43:52.994Z,3.70
2022-08-03T19:46:30.973Z,3.30
2022-08-03T19:49:04.191Z,3.38
2022-08-03T19:52:02.512Z,3.50
2022-08-03T19:54:29.719Z,3.75
2022-08-03T19:57:04.793Z,3.72
2022-08-03T19:59:42.028Z,4.40
2022-08-03T20:02:26.459Z,4.18
2022-08-03T20:05:00.042Z,5.05
2022-08-03T20:07:32.531Z,5.53
2022-08-03T20:10:05.940Z,4.88
2022-08-03T20:12:39.432Z,5.25
2022-08-03T20:15:10.610Z,4.72
2022-08-03T20:17:55.965Z,4.60
2022-08-03T20:20:29.907Z,4.25
2022-08-03T20:23:06.864Z,4.13
2022-08-03T20:25:48.758Z,4.10
2022-08-03T20:28:30.029Z,4.00
2022-08-03T20:30:59.838Z,4.43
2022-08-03T20:33:45.851Z,3.95
2022-08-03T20:36:18.874Z,3.95
2022-08-03T20:38:50.944Z,4.05
2022-08-03T20:41:22.918Z,3.78
2022-08-03T20:43:52.689Z,3.92
2022-08-03T20:46:32.853Z,3.90
2022-08-03T20:49:09.160Z,4.00
2022-08-03T20:51:49.527Z,4.20
2022-08-03T20:54:31.259Z,3.97
2022-08-03T20:57:03.817Z,4.15
2022-08-03T20:59:50.078Z,4.47
2022-08-03T21:02:29.563Z,4.25
2022-08-03T21:05:03.604Z,4.40
2022-08-03T21:08:05.716Z,4.35
2022-08-03T21:10:33.747Z,4.50
2022-08-03T21:13:17.461Z,3.78
2022-08-03T21:16:02.359Z,4.18
2022-08-03T21:18:46.069Z,4.00
2022-08-03T21:21:17.709Z,3.90
2022-08-03T21:23:49.930Z,4.07
2022-08-03T21:26:21.738Z,3.92
2022-08-03T21:28:53.963Z,4.18
2022-08-03T21:31:26.583Z,3.97
2022-08-03T21:33:57.934Z,4.30
2022-08-03T21:36:29.435Z,3.97
2022-08-03T21:38:59.756Z,4.20
2022-08-03T21:41:32.313Z,4.28
2022-08-03T21:44:03.552Z,4.18
2022-08-03T21:46:43.737Z,4.00
2022-08-03T21:54:37.558Z,4.20
2022-08-03T21:57:14.667Z,4.03
2022-08-03T21:59:53.034Z,3.60
2022-08-03T22:02:26.981Z,3.38
2022-08-03T22:04:57.436Z,3.92
2022-08-03T22:07:28.263Z,3.85
2022-08-03T22:09:59.018Z,3.85
2022-08-03T22:12:31.190Z,3.72
2022-08-03T22:15:03.445Z,3.92
2022-08-03T22:17:55.708Z,3.80
2022-08-03T22:20:24.934Z,3.40
2022-08-03T22:22:57.269Z,3.65
2022-08-03T22:25:30.573Z,3.80
2022-08-03T22:28:04.301Z,3.40
2022-08-03T22:30:35.685Z,5.68
2022-08-03T22:33:11.043Z,3.95
2022-08-03T22:35:47.640Z,3.78
2022-08-03T22:38:19.524Z,3.90
2022-08-03T22:40:51.056Z,3.70
2022-08-03T22:43:24.509Z,3.50
2022-08-03T22:46:10.539Z,3.72
2022-08-03T22:48:42.618Z,3.40
2022-08-03T22:51:12.173Z,3.42
2022-08-03T22:53:42.570Z,3.38
2022-08-03T22:56:12.624Z,3.38
2022-08-03T22:58:41.922Z,3.30
2022-08-03T23:01:14.523Z,3.60
2022-08-03T23:03:59.712Z,3.20
2022-08-03T23:06:34.317Z,3.67
2022-08-03T23:09:06.860Z,3.55
2022-08-03T23:11:42.826Z,3.78
2022-08-03T23:14:16.732Z,3.38
2022-08-03T23:16:48.526Z,3.42
2022-08-03T23:19:25.513Z,2.97
2022-08-03T23:22:02.878Z,3.22
2022-08-03T23:24:37.012Z,3.42
2022-08-03T23:27:07.473Z,3.60
2022-08-03T23:29:38.296Z,3.17
2022-08-03T23:32:09.934Z,3.53
2022-08-03T23:34:58.780Z,3.00
2022-08-03T23:37:28.433Z,3.50
2022-08-03T23:42:28.511Z,3.50
2022-08-03T23:44:59.474Z,3.30
2022-08-03T23:47:46.323Z,3.13
2022-08-03T23:50:18.578Z,3.22
